createdAt,value
2023-01-27T00:00:24.469Z,1.80
2023-01-27T00:06:26.391Z,1.80
2023-01-27T00:12:46.942Z,1.80
2023-01-27T00:18:48.852Z,1.90
2023-01-27T00:24:50.777Z,1.90
2023-01-27T00:30:53.241Z,2.00
2023-01-27T00:36:55.182Z,2.00
2023-01-27T00:42:57.001Z,2.00
2023-01-27T00:48:58.996Z,2.00
2023-01-27T00:55:00.832Z,2.00
2023-01-27T01:01:05.922Z,2.00
2023-01-27T01:07:07.705Z,2.10
2023-01-27T01:13:12.050Z,2.10
2023-01-27T01:19:13.961Z,2.20
2023-01-27T01:25:15.863Z,2.10
2023-01-27T01:31:19.975Z,2.10
2023-01-27T01:37:21.922Z,2.20
2023-01-27T01:43:23.730Z,2.20
2023-01-27T01:49:38.907Z,2.30
2023-01-27T01:55:41.871Z,2.20
2023-01-27T02:01:43.929Z,2.20
2023-01-27T02:08:01.014Z,2.30
2023-01-27T02:14:03.432Z,2.40
2023-01-27T02:20:35.939Z,2.40
2023-01-27T02:26:44.144Z,2.30
2023-01-27T02:32:45.951Z,2.40
2023-01-27T02:38:52.647Z,2.30
2023-01-27T02:44:54.424Z,2.40
2023-01-27T02:50:56.451Z,2.30
2023-01-27T02:56:58.291Z,2.30
2023-01-27T03:03:00.072Z,2.30
2023-01-27T03:09:01.923Z,2.30
2023-01-27T03:15:22.899Z,2.30
2023-01-27T03:21:25.301Z,2.40
2023-01-27T03:27:27.135Z,2.40
2023-01-27T03:33:29.335Z,2.40
2023-01-27T03:39:50.009Z,2.40
2023-01-27T03:46:10.727Z,2.50
2023-01-27T03:52:12.526Z,2.50
2023-01-27T03:58:31.797Z,2.40
2023-01-27T04:04:52.109Z,2.40
2023-01-27T04:11:14.137Z,2.50
2023-01-27T04:17:18.104Z,2.50
2023-01-27T04:23:20.068Z,2.50
2023-01-27T04:29:29.782Z,2.40
2023-01-27T04:35:38.582Z,2.50
2023-01-27T04:41:40.983Z,2.60
2023-01-27T04:47:42.999Z,2.60
2023-01-27T04:53:45.001Z,2.70
2023-01-27T04:59:46.800Z,2.70
2023-01-27T05:05:48.759Z,2.70
2023-01-27T05:11:50.744Z,2.60
2023-01-27T05:17:52.755Z,2.70
2023-01-27T05:23:54.616Z,2.70
2023-01-27T05:29:57.235Z,2.60
2023-01-27T05:36:01.213Z,2.70
2023-01-27T05:42:02.973Z,2.70
2023-01-27T05:48:04.908Z,2.70
2023-01-27T05:54:07.962Z,2.80
2023-01-27T06:00:10.587Z,2.70
2023-01-27T06:06:13.419Z,2.80
2023-01-27T06:12:15.278Z,2.90
2023-01-27T06:18:18.830Z,2.90
2023-01-27T06:24:20.679Z,2.90
2023-01-27T06:30:23.078Z,2.90
2023-01-27T06:36:25.021Z,2.90
2023-01-27T06:42:26.999Z,2.80
2023-01-27T06:48:29.235Z,2.80
2023-01-27T06:54:31.103Z,2.90
2023-01-27T07:00:32.959Z,2.80
2023-01-27T07:06:34.744Z,2.80
2023-01-27T07:12:37.921Z,2.90
2023-01-27T07:18:39.730Z,2.90
2023-01-27T07:24:41.518Z,2.80
2023-01-27T07:30:44.153Z,2.90
2023-01-27T07:36:46.063Z,2.80
2023-01-27T07:42:47.878Z,2.90
2023-01-27T07:48:49.801Z,2.90
2023-01-27T07:54:51.673Z,3.00
2023-01-27T08:00:53.473Z,2.90
2023-01-27T08:06:55.320Z,2.90
2023-01-27T08:12:57.245Z,2.90
2023-01-27T08:18:59.202Z,3.00
2023-01-27T08:25:01.121Z,3.00
2023-01-27T08:31:10.203Z,3.00
2023-01-27T08:37:12.148Z,3.00
2023-01-27T08:43:16.592Z,3.00
2023-01-27T08:49:18.406Z,3.00
2023-01-27T08:55:20.265Z,2.90
2023-01-27T09:01:22.132Z,2.90
2023-01-27T09:07:24.046Z,3.00
2023-01-27T09:13:25.871Z,3.00
2023-01-27T09:19:27.655Z,2.90
2023-01-27T09:25:29.819Z,2.80
2023-01-27T09:31:32.617Z,2.80
2023-01-27T09:37:57.088Z,2.80
2023-01-27T09:44:14.095Z,2.70
2023-01-27T09:50:24.664Z,2.70
2023-01-27T09:56:39.127Z,2.70
2023-01-27T10:02:59.392Z,2.70
2023-01-27T10:09:23.278Z,2.80
2023-01-27T10:15:39.519Z,2.80
2023-01-27T10:22:17.179Z,2.90
2023-01-27T10:28:23.673Z,2.90
2023-01-27T10:34:48.472Z,2.80
2023-01-27T10:41:16.159Z,2.80
2023-01-27T10:47:38.255Z,2.80
2023-01-27T10:53:52.091Z,2.80
2023-01-27T11:00:21.900Z,2.80
2023-01-27T11:06:29.171Z,2.80
2023-01-27T11:12:35.543Z,2.80
2023-01-27T11:18:39.076Z,2.90
2023-01-27T11:25:25.739Z,2.80
2023-01-27T11:32:03.533Z,2.90
2023-01-27T11:38:20.122Z,2.90
2023-01-27T11:44:29.459Z,2.90
2023-01-27T11:50:34.826Z,3.10
2023-01-27T11:56:38.036Z,3.10
2023-01-27T12:02:50.152Z,3.10
2023-01-27T12:08:51.962Z,3.10
2023-01-27T12:15:04.745Z,3.20
2023-01-27T12:21:08.982Z,3.10
2023-01-27T12:27:21.878Z,3.00
2023-01-27T12:33:28.888Z,3.10
2023-01-27T12:39:39.735Z,3.30
2023-01-27T12:45:43.388Z,3.30
2023-01-27T12:51:53.796Z,3.30
2023-01-27T12:57:55.710Z,3.20
2023-01-27T13:04:11.176Z,3.20
2023-01-27T13:10:21.099Z,3.10
2023-01-27T13:16:28.736Z,3.10
2023-01-27T13:22:41.989Z,3.00
2023-01-27T13:29:14.840Z,2.90
2023-01-27T13:35:33.251Z,2.90
2023-01-27T13:42:00.169Z,3.00
2023-01-27T13:48:16.012Z,2.90
2023-01-27T13:54:17.788Z,2.90
2023-01-27T14:00:25.266Z,2.90
2023-01-27T14:07:22.062Z,2.80
2023-01-27T14:13:36.826Z,2.80
2023-01-27T14:19:51.244Z,2.80
2023-01-27T14:26:13.904Z,2.80
2023-01-27T14:32:32.325Z,2.80
2023-01-27T14:38:55.284Z,2.80
2023-01-27T14:45:11.479Z,2.80
2023-01-27T14:51:50.647Z,2.70
2023-01-27T14:57:57.098Z,2.80
2023-01-27T15:04:36.332Z,2.70
2023-01-27T15:10:49.269Z,2.60
2023-01-27T15:17:11.796Z,2.50
2023-01-27T15:23:38.343Z,2.50
2023-01-27T15:29:40.590Z,2.50
2023-01-27T15:35:42.753Z,2.40
2023-01-27T15:42:03.256Z,2.40
2023-01-27T15:48:18.340Z,2.30
2023-01-27T15:54:28.684Z,2.30
2023-01-27T16:00:49.545Z,2.30
2023-01-27T16:07:01.998Z,2.30
2023-01-27T16:13:26.161Z,2.40
2023-01-27T16:19:34.301Z,2.30
2023-01-27T16:25:46.449Z,2.30
2023-01-27T16:31:54.604Z,2.20
2023-01-27T16:38:41.362Z,2.20
2023-01-27T16:44:51.788Z,2.20
2023-01-27T16:50:55.460Z,2.20
2023-01-27T16:56:58.192Z,2.20
2023-01-27T17:03:12.944Z,2.20
2023-01-27T17:09:31.916Z,2.10
2023-01-27T17:15:38.616Z,2.10
2023-01-27T17:22:19.388Z,2.10
2023-01-27T17:28:26.598Z,2.00
2023-01-27T17:34:28.717Z,2.00
2023-01-27T17:40:39.099Z,1.90
2023-01-27T17:46:41.529Z,1.90
2023-01-27T17:52:52.139Z,1.90
2023-01-27T17:59:15.840Z,1.80
2023-01-27T18:05:33.111Z,1.80
2023-01-27T18:11:36.648Z,1.80
2023-01-27T18:17:38.404Z,1.80
2023-01-27T18:23:45.305Z,1.80
2023-01-27T18:29:51.625Z,1.80
2023-01-27T18:36:00.959Z,1.80
2023-01-27T18:42:04.155Z,1.80
2023-01-27T18:48:14.493Z,1.80
2023-01-27T18:54:16.457Z,1.80
2023-01-27T19:00:21.941Z,1.80
2023-01-27T19:06:24.022Z,1.80
2023-01-27T19:12:25.770Z,1.80
2023-01-27T19:18:36.722Z,1.70
2023-01-27T19:24:38.632Z,1.70
2023-01-27T19:30:40.757Z,1.70
2023-01-27T19:36:45.914Z,1.70
2023-01-27T19:42:48.480Z,1.60
2023-01-27T19:48:50.392Z,1.60
2023-01-27T19:54:52.265Z,1.70
2023-01-27T20:00:56.123Z,1.60
2023-01-27T20:06:58.129Z,1.60
2023-01-27T20:13:03.239Z,1.50
2023-01-27T20:19:05.262Z,1.50
2023-01-27T20:25:07.800Z,1.50
2023-01-27T20:31:14.209Z,1.50
2023-01-27T20:37:17.428Z,1.50
2023-01-27T20:43:33.542Z,1.40
2023-01-27T20:49:36.547Z,1.40
2023-01-27T20:55:38.530Z,1.30
2023-01-27T21:01:40.742Z,1.30
2023-01-27T21:07:42.853Z,1.30
2023-01-27T21:13:45.105Z,1.20
2023-01-27T21:19:47.069Z,1.10
2023-01-27T21:25:50.171Z,1.00
2023-01-27T21:31:52.112Z,1.00
2023-01-27T21:37:53.935Z,0.90
2023-01-27T21:44:14.724Z,0.90
2023-01-27T21:50:17.481Z,1.00
2023-01-27T21:56:19.422Z,0.90
2023-01-27T22:02:21.902Z,0.80
2023-01-27T22:08:23.739Z,0.80
2023-01-27T22:14:25.632Z,0.80
2023-01-27T22:20:28.730Z,0.80
2023-01-27T22:26:30.654Z,0.90
2023-01-27T22:32:32.556Z,0.90
2023-01-27T22:38:38.634Z,0.90
2023-01-27T22:44:40.486Z,0.80
2023-01-27T22:50:42.720Z,0.80
2023-01-27T22:56:44.522Z,0.90
2023-01-27T23:02:46.425Z,0.90
2023-01-27T23:08:48.319Z,0.80
2023-01-27T23:14:50.259Z,0.80
2023-01-27T23:20:52.730Z,0.90
2023-01-27T23:26:54.526Z,0.90
2023-01-27T23:32:57.252Z,0.70
2023-01-27T23:38:59.128Z,0.70
2023-01-27T23:45:00.944Z,0.80
2023-01-27T23:51:07.691Z,0.80
2023-01-27T23:57:09.735Z,0.80
